Time;durP1;ratioP1;P1;durP2;ratioP2;P2;SDS_P1;SDS_P2;PMS_P1;PMS_P2;Temp;Humidity;BMP_temperature;BMP_pressure;BME280_temperature;BME280_humidity;BME280_pressure;Samples;Min_cycle;Max_cycle;Signal;HPM_P1;HPM_P2
2021/03/17 00:01:06;;;;;;;19.97;14.80;;;11.00;99.90;;;11.96;54.04;101876.50;4933231;28;98274;-54
2021/03/17 00:03:32;;;;;;;20.20;15.33;;;10.80;99.90;;;11.95;54.09;101874.78;4939765;28;98423;-57
2021/03/17 00:05:58;;;;;;;20.37;14.23;;;10.80;99.90;;;11.96;54.12;101878.28;4949959;28;98591;-56
2021/03/17 00:08:24;;;;;;;19.80;14.43;;;10.80;99.90;;;11.93;53.90;101875.72;4922152;28;96920;-56
2021/03/17 00:10:53;;;;;;;21.13;14.10;;;10.80;99.90;;;11.89;54.13;101864.34;4930841;28;98630;-56
2021/03/17 00:13:24;;;;;;;18.93;14.73;;;10.80;99.90;;;11.87;54.01;101871.44;4940790;28;97203;-56
2021/03/17 00:15:50;;;;;;;17.67;14.30;;;10.80;99.90;;;11.88;53.99;101875.84;4925697;28;98750;-57
2021/03/17 00:18:16;;;;;;;19.30;13.83;;;10.80;99.90;;;12.00;53.53;101878.19;4941525;28;98345;-58
2021/03/17 00:20:43;;;;;;;18.90;13.93;;;11.00;99.90;;;12.05;53.41;101880.75;4942591;28;99038;-57
2021/03/17 00:23:09;;;;;;;18.40;14.13;;;11.10;99.90;;;12.10;53.55;101885.00;4923149;28;98770;-58
2021/03/17 00:25:40;;;;;;;18.53;14.03;;;11.20;99.90;;;12.07;53.43;101879.81;4932899;28;97786;-54
2021/03/17 00:28:07;;;;;;;17.50;13.63;;;11.10;99.90;;;12.00;53.84;101883.47;4930430;28;98783;-54
2021/03/17 00:30:36;;;;;;;21.53;14.47;;;11.00;99.90;;;12.02;53.88;101886.09;4928476;28;97961;-52
2021/03/17 00:33:04;;;;;;;18.47;13.57;;;11.00;99.90;;;11.98;54.03;101880.00;4941631;28;97278;-58
2021/03/17 00:35:30;;;;;;;23.47;14.17;;;10.90;99.90;;;12.04;53.57;101885.16;4941589;28;97266;-55
2021/03/17 00:37:56;;;;;;;19.20;14.00;;;11.00;99.90;;;12.05;53.57;101892.19;4944261;28;99220;-55
2021/03/17 00:40:23;;;;;;;18.90;14.17;;;11.00;99.90;;;12.01;53.74;101892.31;4939206;28;98329;-57
2021/03/17 00:42:49;;;;;;;20.70;14.03;;;11.00;99.90;;;12.02;53.83;101894.03;4948599;28;97655;-54
2021/03/17 00:45:15;;;;;;;8.20;7.03;;;11.00;99.90;;;12.03;53.94;101899.28;4923620;28;97599;-55
2021/03/17 00:47:41;;;;;;;18.00;14.60;;;10.90;99.90;;;12.01;53.88;101905.53;4940859;28;98351;-53
2021/03/17 00:50:10;;;;;;;18.03;13.73;;;10.90;99.90;;;11.93;54.39;101903.03;4941098;28;97845;-55
2021/03/17 00:52:36;;;;;;;16.40;14.03;;;10.90;99.90;;;11.86;54.20;101901.41;4949093;28;98913;-55
2021/03/17 00:55:04;;;;;;;19.33;14.03;;;10.80;99.90;;;11.78;54.42;101904.19;4941726;28;97336;-53
2021/03/17 00:57:30;;;;;;;15.63;12.00;;;10.90;99.90;;;11.82;54.77;101907.66;4928913;28;100338;-54
2021/03/17 00:59:56;;;;;;;16.73;14.33;;;10.90;99.90;;;11.84;54.34;101908.50;4929441;28;100009;-53
2021/03/17 01:02:22;;;;;;;17.67;13.90;;;10.90;99.90;;;11.76;54.54;101899.84;4945706;28;105084;-58
2021/03/17 01:04:47;;;;;;;20.23;14.37;;;10.90;99.90;;;11.79;54.25;101905.09;4931878;28;99700;-56
2021/03/17 01:07:19;;;;;;;14.63;10.40;;;10.90;99.90;;;11.78;54.50;101908.63;4932223;28;98967;-53
2021/03/17 01:09:45;;;;;;;16.67;13.67;;;10.90;99.90;;;11.57;54.58;101905.53;4923631;28;99447;-52
2021/03/17 01:12:11;;;;;;;18.57;14.20;;;10.80;99.90;;;11.66;54.60;101898.28;4945584;28;98210;-57
2021/03/17 01:14:38;;;;;;;17.87;13.43;;;10.80;99.90;;;11.56;54.59;101901.09;4937848;28;98946;-57
2021/03/17 01:17:05;;;;;;;18.30;12.70;;;10.80;99.90;;;11.68;54.80;101902.63;4946646;28;99147;-57
2021/03/17 01:19:32;;;;;;;17.60;14.07;;;10.80;99.90;;;11.61;54.68;101901.91;4944863;28;100094;-56
2021/03/17 01:21:58;;;;;;;18.73;13.63;;;10.80;99.90;;;11.78;54.13;101898.03;4922619;28;97304;-57
2021/03/17 01:24:24;;;;;;;18.23;13.40;;;10.90;99.90;;;11.83;53.45;101896.19;4926209;28;97627;-52
2021/03/17 01:26:50;;;;;;;17.07;13.43;;;11.00;99.90;;;11.76;54.18;101907.78;4921393;28;99829;-58
2021/03/17 01:29:16;;;;;;;20.07;13.80;;;10.90;99.90;;;11.82;53.70;101902.38;4935255;28;100054;-54
2021/03/17 01:31:42;;;;;;;14.80;12.37;;;11.00;99.90;;;11.87;54.05;101903.19;4927293;28;97452;-53
2021/03/17 01:34:08;;;;;;;10.70;9.07;;;11.00;99.90;;;11.99;53.61;101910.81;4947044;28;97337;-56
2021/03/17 01:36:33;;;;;;;16.47;13.00;;;11.10;99.90;;;11.66;54.29;101904.44;4933748;28;97938;-59
2021/03/17 01:38:59;;;;;;;14.70;12.37;;;10.90;99.90;;;11.57;54.28;101902.88;4928422;28;100626;-57
2021/03/17 01:41:25;;;;;;;16.67;12.17;;;10.80;99.90;;;11.66;54.65;101903.56;4918884;28;108804;-54
2021/03/17 01:43:51;;;;;;;16.53;12.43;;;10.80;99.90;;;11.71;54.37;101907.84;4928902;28;98724;-57
2021/03/17 01:46:17;;;;;;;14.40;12.33;;;10.80;99.90;;;11.73;54.48;101902.56;4926402;28;109405;-55
2021/03/17 01:48:43;;;;;;;13.50;12.10;;;10.80;99.90;;;11.84;54.13;101908.50;4942653;27;98768;-54
2021/03/17 01:51:09;;;;;;;12.57;11.03;;;10.90;99.90;;;11.86;53.79;101906.69;4938546;28;97020;-51
2021/03/17 01:53:38;;;;;;;15.53;12.27;;;10.90;99.90;;;11.86;53.96;101904.03;4911137;28;99046;-57
2021/03/17 01:56:05;;;;;;;15.73;12.30;;;10.90;99.90;;;11.84;53.96;101913.78;4946779;28;98929;-51
2021/03/17 01:58:32;;;;;;;15.47;11.60;;;10.90;99.90;;;11.88;53.69;101912.84;4925065;28;100381;-57
2021/03/17 02:00:58;;;;;;;14.27;11.60;;;10.90;99.90;;;11.80;54.25;101910.34;4919217;28;98436;-56
2021/03/17 02:03:26;;;;;;;14.63;11.57;;;10.80;99.90;;;11.72;54.45;101914.03;4924868;28;99941;-55
2021/03/17 02:05:53;;;;;;;12.30;10.50;;;10.70;99.90;;;11.70;54.71;101921.97;4930275;28;98063;-51
2021/03/17 02:08:37;;;;;;;12.23;9.37;;;10.70;99.90;;;11.75;54.49;101911.31;4928179;28;98275;-53
2021/03/17 02:11:04;;;;;;;12.50;10.37;;;10.80;99.90;;;11.70;54.52;101915.81;4926344;28;100411;-54
2021/03/17 02:14:03;;;;;;;11.50;10.23;;;10.70;99.90;;;11.63;54.68;101918.59;4919305;28;98924;-54
2021/03/17 02:16:42;;;;;;;13.27;11.17;;;10.70;99.90;;;11.72;54.14;101914.03;4923233;28;98635;-54
2021/03/17 02:19:33;;;;;;;11.83;10.37;;;10.70;99.90;;;11.57;54.67;101915.19;4928913;28;100364;-54
2021/03/17 02:22:40;;;;;;;15.77;11.40;;;10.80;99.90;;;11.47;54.60;101914.50;4938741;28;99383;-57
2021/03/17 02:25:42;;;;;;;13.80;11.80;;;10.70;99.90;;;11.44;54.93;101914.59;4924517;28;99042;-59
2021/03/17 02:28:51;;;;;;;17.67;12.47;;;10.60;99.90;;;11.31;55.31;101918.34;4930979;28;100616;-56
2021/03/17 02:32:18;;;;;;;14.00;11.10;;;10.60;99.90;;;11.22;55.38;101929.06;4925953;28;104545;-53
2021/03/17 02:34:47;;;;;;;14.97;13.27;;;10.50;99.90;;;11.19;55.93;101929.16;4846753;28;98724;-51
2021/03/17 02:37:19;;;;;;;14.47;12.97;;;10.50;99.90;;;11.21;55.97;101928.22;4928767;28;98696;-55
2021/03/17 02:40:02;;;;;;;15.30;12.43;;;10.50;99.90;;;11.23;55.66;101930.81;4930280;28;97471;-57
2021/03/17 02:42:38;;;;;;;16.87;13.33;;;10.50;99.90;;;11.17;55.23;101926.53;4935858;28;98439;-52
2021/03/17 02:45:08;;;;;;;20.60;13.73;;;10.50;99.90;;;11.14;55.53;101921.31;4916045;28;97504;-56
2021/03/17 02:47:41;;;;;;;15.93;13.93;;;10.50;99.90;;;11.11;55.70;101925.75;4936398;28;97403;-56
2021/03/17 02:50:08;;;;;;;17.47;14.67;;;10.40;99.90;;;11.08;56.66;101926.69;4914260;28;104779;-55
2021/03/17 02:52:40;;;;;;;16.50;14.10;;;10.40;99.90;;;11.01;56.11;101931.22;4939207;28;97247;-57
2021/03/17 02:55:08;;;;;;;14.13;11.50;;;10.40;99.90;;;11.26;55.73;101941.31;4906070;28;96903;-55
2021/03/17 02:57:37;;;;;;;17.43;14.10;;;10.60;99.90;;;11.38;55.34;101932.31;4937918;28;98738;-56
2021/03/17 03:00:10;;;;;;;18.97;16.10;;;10.70;99.90;;;11.10;55.17;101939.84;4906173;28;100127;-54
2021/03/17 03:02:39;;;;;;;21.13;14.50;;;10.50;99.90;;;11.15;56.08;101928.34;4940367;28;98580;-55
2021/03/17 03:05:08;;;;;;;17.10;14.83;;;10.50;99.90;;;11.33;55.52;101927.13;4921348;28;99402;-53
2021/03/17 03:07:34;;;;;;;14.93;12.43;;;10.60;99.90;;;11.42;55.14;101932.22;4955113;28;98001;-52
2021/03/17 03:10:05;;;;;;;17.57;15.07;;;10.80;99.90;;;11.32;54.87;101941.22;4926090;28;100148;-55
2021/03/17 03:12:32;;;;;;;16.60;14.60;;;10.80;99.90;;;11.43;54.80;101936.63;4946606;28;97181;-53
2021/03/17 03:14:58;;;;;;;16.87;15.07;;;10.80;99.90;;;11.30;55.29;101937.75;4950711;28;97013;-55
2021/03/17 03:17:24;;;;;;;21.33;16.33;;;10.60;99.90;;;11.32;55.41;101934.19;4950092;28;98982;-56
2021/03/17 03:19:54;;;;;;;17.10;14.87;;;10.70;99.90;;;11.11;55.62;101944.25;4952153;28;102285;-54
2021/03/17 03:22:26;;;;;;;15.27;13.53;;;10.50;99.90;;;11.01;55.66;101940.91;4952655;28;97354;-54
2021/03/17 03:24:55;;;;;;;32.17;20.20;;;10.40;99.90;;;10.93;56.08;101941.03;4959549;28;99685;-56
2021/03/17 03:27:22;;;;;;;10.87;8.93;;;10.40;99.90;;;11.08;55.53;101936.38;4960737;28;97454;-57
2021/03/17 03:29:49;;;;;;;10.23;8.90;;;10.50;99.90;;;11.06;55.46;101935.53;4954089;28;100579;-57
2021/03/17 03:32:14;;;;;;;13.00;11.30;;;10.50;99.90;;;11.19;55.67;101937.06;4954246;28;101594;-52
2021/03/17 03:34:40;;;;;;;13.27;11.57;;;10.60;99.90;;;11.18;55.43;101933.56;4966345;28;98387;-53
2021/03/17 03:37:07;;;;;;;11.93;10.63;;;10.60;99.90;;;11.06;55.50;101938.19;4947693;28;99195;-56
2021/03/17 03:39:34;;;;;;;12.23;10.73;;;10.50;99.90;;;11.10;55.90;101939.84;4951560;28;98536;-52
2021/03/17 03:42:00;;;;;;;13.77;11.03;;;10.40;99.90;;;11.13;55.73;101940.66;4950828;28;100012;-54
2021/03/17 03:44:27;;;;;;;15.57;11.67;;;10.50;99.90;;;11.22;55.91;101950.22;4944007;28;97313;-52
2021/03/17 03:46:54;;;;;;;10.80;8.87;;;10.50;99.90;;;11.15;55.71;101938.91;4954113;28;97867;-54
2021/03/17 03:49:20;;;;;;;7.00;6.33;;;10.50;99.90;;;11.24;55.53;101932.56;4974217;27;98854;-54
2021/03/17 03:52:06;;;;;;;11.20;9.10;;;10.60;99.90;;;11.20;55.14;101941.44;4943688;28;97172;-54
2021/03/17 03:54:42;;;;;;;9.37;8.37;;;10.60;99.90;;;11.37;55.17;101943.78;4929387;28;97444;-51
2021/03/17 03:57:16;;;;;;;4.80;4.27;;;10.70;99.90;;;11.37;54.27;101939.38;4965556;28;100792;-50
2021/03/17 03:59:48;;;;;;;6.37;5.73;;;10.80;99.90;;;11.50;54.61;101940.88;4948874;28;100394;-54
2021/03/17 04:02:26;;;;;;;9.97;7.37;;;10.90;99.90;;;11.58;54.32;101933.69;4961818;28;97959;-55
2021/03/17 04:04:53;;;;;;;13.40;11.50;;;11.00;99.90;;;11.40;54.24;101944.59;4947237;28;102137;-56
2021/03/17 04:07:20;;;;;;;14.47;12.20;;;10.90;99.90;;;11.57;53.77;101925.75;4945380;28;101133;-53
2021/03/17 04:09:52;;;;;;;14.97;12.30;;;10.90;99.90;;;11.58;54.03;101933.69;4940661;28;121983;-53
2021/03/17 04:12:21;;;;;;;13.53;12.13;;;10.80;99.90;;;11.63;54.08;101931.81;4931751;28;99048;-54
2021/03/17 04:14:57;;;;;;;15.40;12.90;;;10.80;99.90;;;11.50;54.17;101935.59;4955485;28;98029;-51
2021/03/17 04:17:33;;;;;;;17.47;14.33;;;10.70;99.90;;;11.55;54.81;101931.06;4939307;28;97363;-60
2021/03/17 04:20:06;;;;;;;16.20;14.37;;;10.70;99.90;;;11.45;53.88;101931.31;4942424;28;98460;-55
2021/03/17 04:22:32;;;;;;;9.27;8.37;;;10.70;99.90;;;11.50;54.70;101937.38;4923594;28;98483;-52
2021/03/17 04:25:04;;;;;;;16.60;14.53;;;10.70;99.90;;;11.19;54.24;101934.44;4941973;28;97414;-57
2021/03/17 04:27:32;;;;;;;15.23;13.40;;;10.60;99.90;;;11.37;54.22;101939.38;4946704;28;97616;-51
2021/03/17 04:30:00;;;;;;;16.20;14.07;;;10.70;99.90;;;11.43;53.98;101939.25;4941309;28;97069;-56
2021/03/17 04:32:27;;;;;;;15.43;13.83;;;10.80;99.90;;;11.54;54.44;101944.31;4963006;28;102182;-51
2021/03/17 04:34:55;;;;;;;14.47;12.80;;;10.80;99.90;;;11.61;53.49;101940.69;4952181;28;97513;-57
2021/03/17 04:37:21;;;;;;;17.80;15.40;;;10.90;99.90;;;11.51;53.64;101947.03;4942864;28;97487;-53
2021/03/17 04:39:50;;;;;;;17.53;15.07;;;10.80;99.90;;;11.44;54.27;101951.56;4935324;27;101823;-56
2021/03/17 04:42:18;;;;;;;14.50;12.60;;;10.80;99.90;;;11.54;54.65;101950.47;4957968;28;97563;-53
2021/03/17 04:44:44;;;;;;;11.00;9.17;;;10.70;99.90;;;11.46;54.52;101951.53;4945703;28;96855;-53
2021/03/17 04:47:14;;;;;;;15.83;13.80;;;10.70;99.90;;;11.27;53.86;101953.63;4971544;28;97212;-53
2021/03/17 04:49:45;;;;;;;15.13;13.53;;;10.70;99.90;;;11.13;54.43;101960.91;4926205;28;104532;-53
2021/03/17 04:52:14;;;;;;;13.23;11.87;;;10.50;99.90;;;10.92;55.23;101957.75;4969707;28;101132;-52
2021/03/17 04:54:41;;;;;;;13.70;11.87;;;10.30;99.90;;;11.06;55.92;101956.66;4977007;28;97429;-51
2021/03/17 04:57:14;;;;;;;12.63;11.10;;;10.30;99.90;;;10.99;55.25;101964.69;4968273;28;97610;-51
2021/03/17 04:59:41;;;;;;;10.90;9.80;;;10.40;99.90;;;11.07;55.58;101971.59;4943157;28;97167;-51
2021/03/17 05:02:10;;;;;;;8.37;7.57;;;10.40;99.90;;;11.20;55.39;101973.13;4950315;28;97409;-53
2021/03/17 05:04:39;;;;;;;12.13;10.03;;;10.50;99.90;;;11.00;53.85;101977.00;4946400;28;97364;-52
2021/03/17 05:07:06;;;;;;;10.97;9.87;;;10.50;99.90;;;10.90;54.39;101985.97;4956000;28;97598;-53
2021/03/17 05:09:33;;;;;;;11.00;9.90;;;10.30;99.90;;;11.09;53.63;101983.00;4947088;28;97685;-51
2021/03/17 05:12:03;;;;;;;10.60;9.60;;;10.50;99.90;;;11.16;55.07;101976.75;4958237;28;98721;-56
2021/03/17 05:14:32;;;;;;;11.47;10.27;;;10.60;99.90;;;11.12;54.10;101975.03;4946185;28;97208;-52
2021/03/17 05:17:00;;;;;;;11.63;10.50;;;10.50;99.90;;;11.14;54.31;101973.22;4954793;28;97512;-51
2021/03/17 05:19:29;;;;;;;13.07;11.73;;;10.60;99.90;;;11.07;54.94;101979.53;4944382;28;103024;-53
2021/03/17 05:21:57;;;;;;;14.30;12.10;;;10.40;99.90;;;11.17;55.66;101975.84;4973557;28;97986;-53
2021/03/17 05:24:25;;;;;;;11.80;10.63;;;10.40;99.90;;;11.33;55.11;101985.25;4945394;28;98979;-56
2021/03/17 05:26:54;;;;;;;13.03;11.73;;;10.50;99.90;;;11.22;53.91;101968.69;4957425;28;97091;-54
2021/03/17 05:29:21;;;;;;;13.40;12.00;;;10.50;99.90;;;11.25;54.42;101971.28;4949866;28;97667;-52
2021/03/17 05:31:49;;;;;;;13.90;12.50;;;10.50;99.90;;;11.23;54.11;101967.81;4948793;28;99845;-51
2021/03/17 05:34:15;;;;;;;14.40;12.63;;;10.60;99.90;;;11.28;54.75;101971.22;4957022;28;97374;-55
2021/03/17 05:36:41;;;;;;;16.17;13.87;;;10.50;99.90;;;10.96;55.77;101970.00;4949783;28;100103;-53
2021/03/17 05:39:06;;;;;;;15.57;13.83;;;10.20;99.90;;;11.11;55.28;101984.72;4955917;28;108620;-52
2021/03/17 05:41:36;;;;;;;15.23;13.73;;;10.30;99.90;;;11.02;55.14;101980.50;4942275;28;100719;-55
2021/03/17 05:44:03;;;;;;;16.27;14.60;;;10.30;99.90;;;10.85;55.00;101977.25;4953106;28;97062;-51
2021/03/17 05:46:29;;;;;;;16.37;14.30;;;10.20;99.90;;;10.86;55.30;101984.28;4943818;28;97709;-51
2021/03/17 05:48:58;;;;;;;14.40;12.93;;;10.10;99.90;;;10.73;55.65;101978.31;4960356;28;100630;-52
2021/03/17 05:51:24;;;;;;;16.23;14.53;;;10.10;99.90;;;10.55;55.55;101982.97;4945425;28;104999;-52
2021/03/17 05:53:50;;;;;;;14.93;13.43;;;10.00;99.90;;;10.42;56.27;101988.44;4967784;28;97134;-57
2021/03/17 05:56:17;;;;;;;15.23;13.67;;;9.80;99.90;;;10.17;57.11;101988.75;4960421;28;97379;-54
2021/03/17 05:58:44;;;;;;;12.40;11.10;;;9.60;99.90;;;10.10;57.86;101990.56;4955309;28;101592;-55
2021/03/17 06:01:15;;;;;;;11.37;10.27;;;9.50;99.90;;;10.07;56.90;101991.50;4966733;28;98634;-52
2021/03/17 06:03:41;;;;;;;11.60;10.30;;;9.60;99.90;;;10.00;57.32;101995.13;4950005;28;97181;-54
2021/03/17 06:06:08;;;;;;;11.63;10.43;;;9.50;99.90;;;9.89;57.78;101996.13;4948286;28;106316;-51
2021/03/17 06:08:46;;;;;;;11.10;10.07;;;9.40;99.90;;;9.78;57.91;101991.84;4951173;28;99530;-52
2021/03/17 06:11:16;;;;;;;11.47;10.37;;;9.30;99.90;;;9.65;58.79;101992.84;4949365;28;97902;-56
2021/03/17 06:13:50;;;;;;;11.37;10.23;;;9.20;99.90;;;9.51;58.54;101997.41;4934286;28;97551;-50
2021/03/17 06:16:20;;;;;;;10.57;9.57;;;9.10;99.90;;;9.79;58.34;101996.22;4958383;28;97058;-58
2021/03/17 06:18:52;;;;;;;11.90;10.70;;;9.30;99.90;;;9.58;58.37;102004.38;4947394;28;99962;-56
2021/03/17 06:21:19;;;;;;;11.33;10.23;;;9.20;99.90;;;9.62;58.77;102003.44;4961149;28;97072;-56
2021/03/17 06:23:50;;;;;;;11.20;10.17;;;9.20;99.90;;;9.60;58.33;102007.84;4947242;28;97111;-53
2021/03/17 06:26:17;;;;;;;10.13;9.13;;;9.30;99.90;;;9.89;58.69;102006.66;4955625;28;97029;-54
2021/03/17 06:28:45;;;;;;;9.87;8.90;;;9.50;99.90;;;10.15;57.96;101999.31;4944564;28;102186;-56
2021/03/17 06:31:11;;;;;;;11.47;10.03;;;9.70;99.90;;;10.43;56.78;102006.03;4958217;28;97390;-56
2021/03/17 06:33:39;;;;;;;11.47;10.27;;;10.00;99.90;;;10.29;56.88;102000.06;4943621;28;103408;-53
2021/03/17 06:36:18;;;;;;;12.87;11.40;;;9.90;99.90;;;10.24;57.75;101999.22;4951987;28;96965;-51
2021/03/17 06:38:46;;;;;;;10.33;9.17;;;9.70;99.90;;;10.38;57.84;102002.53;4944780;28;99038;-54
2021/03/17 06:41:15;;;;;;;12.30;11.10;;;9.80;99.90;;;10.56;56.82;101995.25;4952316;28;97797;-56
2021/03/17 06:43:46;;;;;;;13.83;12.43;;;10.00;99.90;;;10.48;56.84;101991.88;4946284;28;97320;-53
2021/03/17 06:46:19;;;;;;;14.03;12.63;;;10.00;99.90;;;10.32;56.93;101997.38;4969849;28;97715;-54
2021/03/17 06:48:45;;;;;;;13.57;12.17;;;9.80;99.90;;;10.34;56.65;102000.84;4949169;28;97733;-55
2021/03/17 06:51:17;;;;;;;13.23;11.83;;;9.80;99.90;;;10.28;57.17;102000.06;4955530;28;98166;-57
2021/03/17 06:53:55;;;;;;;13.50;12.10;;;9.80;99.90;;;10.56;57.13;101989.97;4959250;28;98116;-57
2021/03/17 06:56:21;;;;;;;15.80;13.47;;;10.00;99.90;;;10.54;57.21;101991.78;4949250;28;97083;-57
2021/03/17 06:59:05;;;;;;;15.57;13.67;;;9.90;99.90;;;10.65;57.33;101998.66;4940075;28;101977;-54
2021/03/17 07:01:37;;;;;;;16.20;13.93;;;10.00;99.90;;;10.59;56.28;101987.31;4949569;28;97337;-53
2021/03/17 07:04:24;;;;;;;19.50;15.07;;;10.10;99.90;;;10.47;57.14;101995.41;4952433;28;97065;-55
2021/03/17 07:07:01;;;;;;;13.87;12.47;;;9.90;99.90;;;10.68;57.02;101995.97;4951305;28;97035;-57
2021/03/17 07:09:30;;;;;;;21.97;16.43;;;10.00;99.90;;;10.67;56.29;101988.06;4942601;28;103426;-53
2021/03/17 07:12:11;;;;;;;18.40;12.77;;;10.20;99.90;;;10.50;56.59;101990.09;4986835;28;98214;-55
2021/03/17 07:14:41;;;;;;;15.90;13.40;;;10.00;99.90;;;10.36;57.15;101988.50;4970645;27;99402;-51
2021/03/17 07:17:26;;;;;;;17.80;15.07;;;9.90;99.90;;;10.18;57.44;101986.09;4951879;28;97031;-56
2021/03/17 07:19:52;;;;;;;16.97;14.17;;;9.70;99.90;;;10.03;59.14;101983.66;4940288;28;103100;-54
2021/03/17 07:22:20;;;;;;;15.50;13.33;;;9.50;99.90;;;9.81;58.65;101986.53;4959633;28;97239;-56
2021/03/17 07:24:48;;;;;;;15.77;14.07;;;9.40;99.90;;;9.76;59.33;101985.72;4940646;28;98256;-53
2021/03/17 07:27:24;;;;;;;16.17;14.27;;;9.40;99.90;;;9.93;59.58;101984.66;4955391;28;97036;-54
2021/03/17 07:30:03;;;;;;;20.50;17.97;;;9.50;99.90;;;9.73;59.75;101979.63;4939957;28;102885;-51
2021/03/17 07:32:58;;;;;;;18.43;16.00;;;9.30;99.90;;;9.69;59.68;101984.06;4966573;28;100089;-53
2021/03/17 07:35:35;;;;;;;15.60;13.90;;;9.30;99.90;;;9.69;59.75;101981.41;4952106;28;96917;-55
2021/03/17 07:38:21;;;;;;;17.87;15.33;;;9.40;99.90;;;9.95;58.97;101980.22;4955205;28;97345;-54
2021/03/17 07:40:47;;;;;;;21.00;17.70;;;9.50;99.90;;;9.89;59.13;101983.81;4917407;28;118821;-51
2021/03/17 07:43:16;;;;;;;24.73;19.70;;;9.50;99.90;;;10.09;59.20;101980.94;4972756;28;97568;-53
2021/03/17 07:45:42;;;;;;;15.83;14.13;;;9.70;99.90;;;9.87;59.11;101988.25;4945195;28;96952;-54
2021/03/17 07:48:11;;;;;;;18.97;17.00;;;9.60;99.90;;;10.02;59.19;101985.41;4977277;28;97873;-54
2021/03/17 07:50:38;;;;;;;16.07;14.47;;;9.60;99.90;;;10.17;58.55;101989.63;4946301;28;97741;-56
2021/03/17 07:53:16;;;;;;;15.17;13.33;;;9.80;99.90;;;10.26;58.97;101992.16;4972336;28;97373;-54
2021/03/17 07:55:45;;;;;;;11.50;10.33;;;9.70;99.90;;;10.30;58.58;101987.72;4946640;28;99446;-51
2021/03/17 07:58:15;;;;;;;14.73;13.00;;;9.80;99.90;;;10.15;58.49;101999.31;4944422;27;97420;-55
2021/03/17 08:00:43;;;;;;;14.73;13.23;;;9.70;99.90;;;10.24;58.64;102001.84;4960873;27;99263;-50
2021/03/17 08:03:13;;;;;;;14.40;12.80;;;9.80;99.90;;;10.34;57.97;102011.41;4968336;28;100337;-54
2021/03/17 08:05:40;;;;;;;14.17;12.77;;;10.00;99.90;;;10.31;58.35;102005.31;4929622;28;98130;-55
2021/03/17 08:08:08;;;;;;;13.60;12.20;;;10.00;99.90;;;10.63;57.64;102002.22;4960730;28;97197;-55
2021/03/17 08:10:43;;;;;;;10.23;9.13;;;10.10;99.90;;;10.77;57.61;102012.56;4949827;28;98823;-55
2021/03/17 08:13:14;;;;;;;12.33;11.13;;;10.20;99.90;;;10.78;57.39;102007.25;4971268;28;96970;-52
2021/03/17 08:15:43;;;;;;;11.03;9.37;;;10.40;99.90;;;10.71;57.67;102006.50;4937869;28;97275;-54
2021/03/17 08:18:33;;;;;;;11.20;10.10;;;10.40;99.90;;;10.96;56.24;102006.09;4963595;28;102711;-54
2021/03/17 08:21:01;;;;;;;8.00;7.20;;;10.50;99.90;;;11.03;56.46;102013.91;4950797;28;101864;-50
2021/03/17 08:23:50;;;;;;;10.37;9.30;;;10.50;99.90;;;11.10;54.95;102008.50;4937807;28;102119;-53
2021/03/17 08:26:22;;;;;;;4.10;3.80;;;10.70;99.90;;;11.67;54.50;102021.59;4965663;28;97160;-56
2021/03/17 08:28:53;;;;;;;4.60;4.20;;;11.10;99.90;;;12.30;52.51;102040.69;4955302;28;97801;-56
2021/03/17 08:31:37;;;;;;;3.33;3.00;;;12.00;99.90;;;13.04;50.74;102029.31;4954759;28;97635;-56
2021/03/17 08:34:18;;;;;;;3.03;2.73;;;12.90;98.50;;;13.49;49.48;102034.41;4956490;28;99921;-58
2021/03/17 08:37:10;;;;;;;4.03;2.63;;;13.50;96.90;;;13.72;48.87;102031.97;4962127;28;96959;-57
2021/03/17 08:39:42;;;;;;;2.83;2.57;;;13.70;95.70;;;13.91;48.26;102033.25;4956912;28;97057;-55
2021/03/17 08:42:31;;;;;;;2.43;2.10;;;14.00;96.00;;;14.18;44.75;102028.06;4940694;28;100857;-52
2021/03/17 08:45:16;;;;;;;3.07;2.83;;;14.30;93.30;;;14.24;46.82;102030.53;4971604;28;103174;-53
2021/03/17 08:47:45;;;;;;;4.07;2.97;;;14.30;94.00;;;14.46;46.75;102034.31;4940507;28;97082;-55
2021/03/17 08:50:30;;;;;;;2.87;2.43;;;14.50;94.70;;;14.53;45.46;102038.53;4963532;28;96880;-50
2021/03/17 08:52:56;;;;;;;2.80;2.40;;;14.60;93.40;;;14.39;46.91;102031.88;4942555;28;102356;-51
2021/03/17 08:55:35;;;;;;;4.53;2.53;;;14.30;94.70;;;14.25;45.56;102034.94;4974568;28;98039;-58
2021/03/17 08:58:09;;;;;;;2.63;2.43;;;14.10;93.20;;;14.07;46.18;102035.47;4945199;28;100157;-53
2021/03/17 09:00:58;;;;;;;3.40;2.77;;;13.80;94.40;;;14.11;47.32;102032.66;4970892;28;97420;-53
2021/03/17 09:03:45;;;;;;;4.13;3.03;;;13.80;95.00;;;13.84;47.99;102042.25;4936709;28;99809;-52
2021/03/17 09:06:25;;;;;;;3.70;2.70;;;13.50;95.70;;;13.72;46.29;102039.94;4974089;28;97315;-54
2021/03/17 09:09:03;;;;;;;2.57;2.37;;;13.60;94.00;;;14.02;47.55;102042.66;4946664;28;98275;-52
2021/03/17 09:11:29;;;;;;;3.03;1.90;;;13.70;95.60;;;13.97;47.87;102041.03;4990644;28;97006;-53
2021/03/17 09:14:00;;;;;;;3.47;2.70;;;13.70;95.70;;;13.66;48.40;102050.72;4947430;28;98431;-56
2021/03/17 09:16:27;;;;;;;2.77;2.50;;;13.30;95.70;;;13.95;46.96;102037.53;4952340;28;100129;-55
2021/03/17 09:19:08;;;;;;;6.40;4.10;;;13.70;95.00;;;13.68;45.48;102038.28;4958682;28;101500;-55
2021/03/17 09:21:37;;;;;;;3.60;2.90;;;13.60;93.20;;;13.57;48.00;102041.22;4969480;28;98591;-55
2021/03/17 09:24:03;;;;;;;6.00;3.67;;;13.10;96.00;;;13.50;46.89;102033.47;4941057;28;98421;-54
2021/03/17 09:26:30;;;;;;;3.87;3.47;;;13.20;95.60;;;13.44;48.60;102049.53;4965236;28;98224;-55
2021/03/17 09:29:07;;;;;;;2.07;1.87;;;12.90;96.70;;;13.46;48.71;102031.84;4949875;28;100025;-53
2021/03/17 09:31:34;;;;;;;3.37;2.60;;;12.90;96.90;;;13.47;48.68;102044.16;4950855;28;96972;-55
2021/03/17 09:34:01;;;;;;;4.20;3.10;;;13.00;96.20;;;13.39;48.39;102041.69;4967735;28;97249;-55
2021/03/17 09:36:29;;;;;;;4.47;2.83;;;13.00;95.60;;;13.56;45.90;102039.47;4964551;28;98345;-56
2021/03/17 09:38:56;;;;;;;3.83;2.50;;;13.40;94.10;;;13.82;47.66;102033.47;4958054;28;96925;-55
2021/03/17 09:41:24;;;;;;;7.73;3.63;;;13.60;94.90;;;13.50;48.66;102050.25;4945567;28;98566;-56
2021/03/17 09:43:53;;;;;;;4.03;2.40;;;13.30;95.50;;;13.34;49.07;102039.19;4951891;28;101576;-57
2021/03/17 09:46:27;;;;;;;3.03;2.13;;;12.90;96.60;;;13.36;49.21;102032.06;4945946;28;97456;-53
2021/03/17 09:49:05;;;;;;;1.77;1.67;;;12.90;96.10;;;13.27;45.55;102026.09;4950498;28;99248;-54
2021/03/17 09:51:39;;;;;;;2.20;1.63;;;13.00;94.40;;;13.76;48.09;102031.00;4975435;28;97096;-57
2021/03/17 09:54:08;;;;;;;2.27;1.77;;;13.60;95.20;;;13.99;44.89;102030.34;4953165;28;97775;-51
2021/03/17 09:57:01;;;;;;;1.73;1.63;;;14.00;93.90;;;14.22;47.11;102024.41;4947875;28;96991;-53
2021/03/17 09:59:37;;;;;;;3.43;1.90;;;14.20;94.00;;;14.08;45.40;102026.59;4960902;28;97342;-55
2021/03/17 10:02:26;;;;;;;1.90;1.30;;;14.00;91.20;;;14.32;46.71;102019.69;4948677;28;102018;-56
2021/03/17 10:05:01;;;;;;;2.33;1.23;;;14.20;94.20;;;14.51;46.08;102021.78;4951606;28;101935;-51
2021/03/17 10:07:32;;;;;;;1.97;1.70;;;14.50;93.40;;;14.33;44.54;102021.44;4952275;28;96929;-50
2021/03/17 10:09:59;;;;;;;1.63;1.17;;;14.40;90.10;;;14.47;46.40;102030.78;4953891;28;97112;-56
2021/03/17 10:12:28;;;;;;;2.50;1.10;;;14.30;93.40;;;14.56;45.93;102024.28;4941943;28;97127;-57
2021/03/17 10:15:06;;;;;;;1.83;1.30;;;14.40;93.10;;;14.71;45.40;102025.59;4935328;28;97054;-52
2021/03/17 10:17:33;;;;;;;3.50;2.27;;;14.70;92.20;;;14.86;42.24;102017.16;4947422;28;99290;-51
2021/03/17 10:20:08;;;;;;;3.80;1.40;;;15.00;90.30;;;14.45;44.67;102021.94;4955190;28;96740;-56